createdAt,value
2018-10-19T00:00:59.067Z,78.60
2018-10-19T00:03:27.760Z,79.03
2018-10-19T00:05:56.410Z,82.73
2018-10-19T00:08:25.160Z,82.19
2018-10-19T00:10:53.822Z,79.90
2018-10-19T00:13:22.379Z,80.01
2018-10-19T00:15:50.979Z,79.65
2018-10-19T00:18:19.644Z,78.79
2018-10-19T00:20:48.255Z,80.15
2018-10-19T00:23:16.912Z,80.20
2018-10-19T00:25:45.512Z,80.48
2018-10-19T00:28:14.170Z,80.16
2018-10-19T00:30:42.794Z,80.33
2018-10-19T00:33:11.472Z,80.45
2018-10-19T00:35:40.033Z,79.77
2018-10-19T00:38:08.636Z,80.03
2018-10-19T00:40:37.296Z,79.67
2018-10-19T00:43:06.006Z,80.27
2018-10-19T00:45:40.099Z,80.01
2018-10-19T00:48:14.501Z,80.44
2018-10-19T00:50:43.265Z,80.59
2018-10-19T00:53:12.351Z,80.70
2018-10-19T00:55:41.115Z,80.48
2018-10-19T00:58:09.759Z,80.11
2018-10-19T01:00:40.635Z,80.44
2018-10-19T01:03:09.638Z,80.12
2018-10-19T01:05:39.224Z,80.55
2018-10-19T01:08:08.587Z,80.47
2018-10-19T01:10:37.202Z,80.22
2018-10-19T01:13:06.155Z,80.15
2018-10-19T01:15:34.765Z,81.02
2018-10-19T01:18:03.371Z,80.54
2018-10-19T01:20:31.999Z,80.38
2018-10-19T01:23:00.661Z,80.82
2018-10-19T01:25:29.241Z,80.57
2018-10-19T01:27:57.867Z,80.41
2018-10-19T01:30:26.496Z,80.19
2018-10-19T01:32:55.114Z,80.87
2018-10-19T01:35:23.746Z,80.42
2018-10-19T01:37:52.351Z,80.86
2018-10-19T01:40:20.973Z,80.29
2018-10-19T01:42:49.568Z,79.91
2018-10-19T01:45:18.196Z,80.74
2018-10-19T01:47:46.806Z,81.37
2018-10-19T01:50:15.452Z,80.47
2018-10-19T01:52:44.074Z,81.10
2018-10-19T01:55:12.719Z,81.08
2018-10-19T01:57:41.359Z,81.13
2018-10-19T02:00:09.991Z,80.35
2018-10-19T02:02:38.647Z,80.06
2018-10-19T02:05:07.334Z,80.41
2018-10-19T02:07:35.870Z,78.23
2018-10-19T02:10:05.533Z,78.55
2018-10-19T02:12:34.188Z,79.91
2018-10-19T02:15:02.890Z,80.09
2018-10-19T02:17:31.513Z,80.44
2018-10-19T02:20:00.486Z,79.35
2018-10-19T02:22:29.129Z,79.27
2018-10-19T02:24:58.229Z,79.21
2018-10-19T02:27:26.829Z,80.18
2018-10-19T02:29:55.470Z,80.51
2018-10-19T02:32:24.233Z,80.64
2018-10-19T02:34:52.866Z,80.80
2018-10-19T02:37:21.483Z,80.68
2018-10-19T02:39:50.063Z,80.54
2018-10-19T02:42:18.671Z,79.93
2018-10-19T02:44:47.275Z,80.12
2018-10-19T02:47:16.011Z,79.84
2018-10-19T02:49:44.561Z,80.30
2018-10-19T02:52:13.176Z,80.10
2018-10-19T02:54:41.868Z,79.33
2018-10-19T02:57:10.527Z,80.20
2018-10-19T02:59:39.128Z,79.99
2018-10-19T03:02:07.909Z,79.80
2018-10-19T03:04:36.507Z,80.58
2018-10-19T03:07:05.719Z,81.20
2018-10-19T03:09:34.326Z,79.99
2018-10-19T03:12:03.119Z,80.64
2018-10-19T03:14:31.795Z,80.25
2018-10-19T03:17:00.739Z,80.12
2018-10-19T03:19:29.312Z,79.92
2018-10-19T03:21:57.927Z,80.00
2018-10-19T03:24:26.573Z,79.00
2018-10-19T03:26:55.228Z,79.63
2018-10-19T03:29:23.850Z,79.34
2018-10-19T03:31:52.460Z,78.89
2018-10-19T03:34:21.068Z,79.23
2018-10-19T03:36:49.703Z,79.22
2018-10-19T03:39:18.387Z,79.33
2018-10-19T03:41:46.964Z,80.10
2018-10-19T03:44:15.607Z,80.80
2018-10-19T03:46:44.276Z,80.86
2018-10-19T03:49:12.928Z,80.67
2018-10-19T03:51:41.512Z,82.14
2018-10-19T03:54:10.112Z,81.51
2018-10-19T03:56:38.751Z,80.81
2018-10-19T03:59:07.676Z,80.42
2018-10-19T04:01:36.308Z,80.29
2018-10-19T04:04:04.941Z,79.92
2018-10-19T04:06:33.551Z,80.10
2018-10-19T04:09:02.206Z,79.87
2018-10-19T04:11:30.800Z,79.64
2018-10-19T04:13:59.460Z,79.59
2018-10-19T04:16:28.092Z,79.61
2018-10-19T04:18:56.742Z,79.54
2018-10-19T04:21:25.362Z,78.99
2018-10-19T04:23:54.022Z,79.83
2018-10-19T04:26:22.656Z,78.99
2018-10-19T04:28:51.317Z,79.44
2018-10-19T04:31:19.943Z,79.59
2018-10-19T04:33:48.619Z,80.14
2018-10-19T04:36:17.267Z,80.12
2018-10-19T04:38:46.296Z,83.42
2018-10-19T04:41:14.995Z,82.39
2018-10-19T04:43:43.567Z,80.35
2018-10-19T04:46:12.223Z,78.48
2018-10-19T04:48:40.863Z,79.13
2018-10-19T04:51:09.820Z,79.58
2018-10-19T04:53:38.416Z,79.03
2018-10-19T04:56:07.051Z,78.75
2018-10-19T04:58:35.684Z,78.81
2018-10-19T05:01:04.365Z,78.53
2018-10-19T05:03:33.054Z,78.81
2018-10-19T05:06:02.038Z,79.58
2018-10-19T05:08:31.256Z,79.19
2018-10-19T05:11:00.046Z,79.33
2018-10-19T05:13:28.811Z,81.71
2018-10-19T05:15:57.469Z,80.15
2018-10-19T05:18:26.156Z,82.02
2018-10-19T05:20:54.968Z,80.67
2018-10-19T05:23:23.626Z,80.77
2018-10-19T05:25:52.352Z,81.07
2018-10-19T05:28:21.932Z,80.23
2018-10-19T05:30:50.745Z,79.83
2018-10-19T05:33:19.456Z,79.68
2018-10-19T05:35:48.145Z,79.44
2018-10-19T05:38:16.899Z,79.17
2018-10-19T05:40:45.468Z,79.08
2018-10-19T05:43:14.069Z,78.99
2018-10-19T05:45:42.688Z,78.87
2018-10-19T05:48:11.343Z,78.54
2018-10-19T05:50:39.968Z,80.09
2018-10-19T05:53:08.735Z,81.18
2018-10-19T05:55:37.324Z,80.51
2018-10-19T05:58:06.128Z,80.13
2018-10-19T06:00:34.738Z,79.93
2018-10-19T06:03:03.486Z,79.55
2018-10-19T06:05:32.182Z,79.40
2018-10-19T06:08:00.815Z,80.54
2018-10-19T06:10:29.552Z,80.21
2018-10-19T06:12:58.228Z,79.29
2018-10-19T06:15:26.887Z,78.84
2018-10-19T06:17:55.707Z,78.88
2018-10-19T06:20:24.355Z,79.12
2018-10-19T06:22:53.102Z,79.10
2018-10-19T06:25:21.704Z,78.88
2018-10-19T06:27:50.359Z,78.74
2018-10-19T06:30:19.037Z,78.60
2018-10-19T06:32:47.722Z,78.55
2018-10-19T06:35:16.559Z,79.02
2018-10-19T06:37:45.085Z,78.99
2018-10-19T06:40:13.733Z,78.45
2018-10-19T06:42:42.460Z,77.95
2018-10-19T06:45:11.546Z,78.47
2018-10-19T06:47:40.189Z,78.31
2018-10-19T06:50:10.459Z,78.00
2018-10-19T06:52:39.570Z,77.79
2018-10-19T06:55:09.287Z,77.71
2018-10-19T06:57:37.890Z,77.53
2018-10-19T07:00:06.560Z,76.77
2018-10-19T07:02:35.260Z,76.77
2018-10-19T07:05:04.028Z,76.52
2018-10-19T07:07:32.764Z,76.15
2018-10-19T07:10:01.491Z,76.23
2018-10-19T07:12:30.375Z,76.81
2018-10-19T07:14:59.117Z,77.32
2018-10-19T07:17:27.775Z,77.19
2018-10-19T07:19:56.461Z,76.69
2018-10-19T07:22:25.152Z,76.29
2018-10-19T07:24:53.790Z,76.42
2018-10-19T07:27:22.508Z,76.77
2018-10-19T07:29:51.173Z,76.70
2018-10-19T07:32:19.808Z,77.11
2018-10-19T07:34:48.479Z,78.66
2018-10-19T07:37:17.180Z,79.44
2018-10-19T07:39:45.812Z,79.06
2018-10-19T07:42:14.626Z,78.84
2018-10-19T07:44:43.172Z,78.98
2018-10-19T07:47:11.829Z,78.80
2018-10-19T07:49:40.431Z,77.07
2018-10-19T07:52:09.105Z,76.69
2018-10-19T07:54:37.819Z,75.33
2018-10-19T07:57:06.404Z,74.93
2018-10-19T07:59:35.051Z,75.61
2018-10-19T08:02:03.977Z,76.33
2018-10-19T08:04:32.540Z,76.84
2018-10-19T08:07:01.203Z,76.69
2018-10-19T08:09:29.835Z,76.75
2018-10-19T08:11:58.499Z,76.44
2018-10-19T08:14:27.167Z,76.87
2018-10-19T08:16:55.817Z,76.07
2018-10-19T08:19:24.465Z,75.69
2018-10-19T08:21:53.167Z,75.62
2018-10-19T08:24:21.821Z,75.37
2018-10-19T08:26:50.574Z,74.68
2018-10-19T08:29:19.506Z,74.52
2018-10-19T08:31:48.175Z,74.41
2018-10-19T08:34:16.847Z,73.97
2018-10-19T08:36:45.511Z,73.27
2018-10-19T08:39:14.145Z,72.40
2018-10-19T08:41:42.867Z,71.59
2018-10-19T08:44:11.445Z,71.24
2018-10-19T08:46:41.412Z,71.23
2018-10-19T08:49:11.442Z,70.02
2018-10-19T08:51:40.902Z,67.70
2018-10-19T08:54:09.979Z,66.54
2018-10-19T08:56:39.286Z,64.93
2018-10-19T08:59:07.924Z,63.42
2018-10-19T09:01:36.529Z,60.72
2018-10-19T09:04:05.436Z,60.68
2018-10-19T09:06:34.076Z,59.33
2018-10-19T09:09:02.764Z,58.90
2018-10-19T09:11:31.432Z,57.29
2018-10-19T09:14:00.067Z,58.30
2018-10-19T09:16:28.703Z,56.53
2018-10-19T09:18:57.336Z,57.10
2018-10-19T09:21:25.956Z,57.11
2018-10-19T09:23:54.616Z,58.77
2018-10-19T09:26:23.257Z,57.43
2018-10-19T09:28:51.862Z,59.08
2018-10-19T09:31:20.564Z,58.82
2018-10-19T09:33:49.283Z,60.23
2018-10-19T09:36:18.193Z,59.92
2018-10-19T09:38:46.707Z,60.83
2018-10-19T09:41:15.432Z,59.93
2018-10-19T09:43:44.100Z,60.78
2018-10-19T09:46:12.737Z,61.39
2018-10-19T09:48:41.402Z,60.19
2018-10-19T09:51:10.155Z,60.33
2018-10-19T09:53:38.714Z,60.70
2018-10-19T09:56:07.406Z,61.23
2018-10-19T09:58:35.989Z,61.69
2018-10-19T10:01:09.033Z,61.30
2018-10-19T10:03:37.670Z,62.10
2018-10-19T10:06:06.332Z,62.49
2018-10-19T10:08:34.976Z,61.91
2018-10-19T10:11:03.648Z,60.70
2018-10-19T10:13:32.303Z,59.78
2018-10-19T10:16:00.951Z,60.14
2018-10-19T10:18:29.623Z,59.12
2018-10-19T10:20:58.329Z,58.95
2018-10-19T10:23:27.014Z,57.19
2018-10-19T10:25:55.752Z,54.79
2018-10-19T10:28:24.446Z,51.29
2018-10-19T10:30:53.209Z,49.74
2018-10-19T10:33:21.859Z,44.75
2018-10-19T10:35:50.612Z,45.65
2018-10-19T10:38:19.206Z,45.14
2018-10-19T10:40:47.848Z,48.03
2018-10-19T10:43:16.563Z,51.40
2018-10-19T10:45:45.190Z,53.39
2018-10-19T10:48:13.833Z,53.35
2018-10-19T10:50:42.489Z,55.24
2018-10-19T10:53:11.180Z,55.07
2018-10-19T10:55:39.849Z,54.67
2018-10-19T10:58:08.654Z,54.83
2018-10-19T11:00:37.226Z,53.59
2018-10-19T11:03:05.912Z,54.34
2018-10-19T11:05:34.526Z,56.16
2018-10-19T11:08:03.187Z,57.12
2018-10-19T11:10:31.865Z,56.97
2018-10-19T11:13:00.567Z,56.54
2018-10-19T11:15:29.139Z,57.05
2018-10-19T11:17:58.438Z,56.95
2018-10-19T11:20:27.099Z,56.53
2018-10-19T11:22:55.735Z,57.41
2018-10-19T11:25:24.371Z,58.92
2018-10-19T11:27:53.045Z,59.23
2018-10-19T11:30:21.627Z,59.20
2018-10-19T11:32:50.270Z,57.76
2018-10-19T11:35:18.905Z,57.54
2018-10-19T11:37:47.559Z,55.66
2018-10-19T11:40:27.438Z,56.12
2018-10-19T11:42:56.746Z,55.25
2018-10-19T11:45:27.443Z,54.98
2018-10-19T11:47:56.379Z,54.83
2018-10-19T11:50:24.997Z,52.64
2018-10-19T11:52:53.669Z,53.04
2018-10-19T11:55:22.308Z,52.28
2018-10-19T11:57:51.678Z,52.78
2018-10-19T12:00:20.338Z,52.83
2018-10-19T12:02:49.084Z,52.39
2018-10-19T12:05:17.736Z,54.02
2018-10-19T12:07:46.394Z,52.88
2018-10-19T12:10:15.494Z,55.88
2018-10-19T12:12:44.362Z,53.86
2018-10-19T12:15:14.184Z,53.50
2018-10-19T12:17:43.497Z,54.90
2018-10-19T12:20:13.726Z,52.80
2018-10-19T12:22:42.380Z,51.29
2018-10-19T12:25:11.930Z,51.99
2018-10-19T12:27:40.867Z,52.56
2018-10-19T12:30:10.204Z,51.52
2018-10-19T12:32:39.044Z,54.25
2018-10-19T12:35:09.324Z,54.23
2018-10-19T12:37:38.214Z,54.61
2018-10-19T12:40:07.476Z,55.37
2018-10-19T12:42:36.431Z,56.68
2018-10-19T12:45:06.207Z,55.78
2018-10-19T12:47:39.067Z,56.34
2018-10-19T12:50:07.968Z,55.34
2018-10-19T12:52:36.728Z,54.89
2018-10-19T12:55:07.102Z,57.27
2018-10-19T12:57:35.803Z,58.50
2018-10-19T13:00:05.677Z,59.33
2018-10-19T13:02:34.299Z,58.92
2018-10-19T13:05:02.913Z,59.24
2018-10-19T13:07:31.561Z,59.22
2018-10-19T13:10:00.210Z,60.04
2018-10-19T13:12:28.849Z,61.01
2018-10-19T13:14:57.498Z,60.74
2018-10-19T13:17:26.177Z,61.20
2018-10-19T13:19:54.762Z,61.84
2018-10-19T13:22:23.522Z,61.46
2018-10-19T13:24:52.635Z,62.69
2018-10-19T13:27:21.216Z,62.29
2018-10-19T13:29:49.899Z,63.23
2018-10-19T13:32:18.619Z,62.20
2018-10-19T13:34:47.269Z,61.85
2018-10-19T13:37:15.910Z,61.94
2018-10-19T13:39:44.528Z,63.16
2018-10-19T13:42:13.206Z,62.53
2018-10-19T13:44:41.836Z,62.44
2018-10-19T13:47:10.588Z,63.08
2018-10-19T13:49:39.376Z,62.47
2018-10-19T13:52:07.969Z,62.20
2018-10-19T13:54:36.873Z,62.55
2018-10-19T13:57:05.538Z,62.72
2018-10-19T13:59:34.127Z,61.83
2018-10-19T14:02:02.754Z,62.08
2018-10-19T14:04:31.429Z,61.42
2018-10-19T14:07:00.062Z,62.10
2018-10-19T14:09:28.744Z,61.61
2018-10-19T14:11:57.399Z,61.57
2018-10-19T14:14:26.074Z,61.38
2018-10-19T14:16:54.810Z,61.54
2018-10-19T14:19:23.363Z,61.23
2018-10-19T14:21:52.233Z,60.76
2018-10-19T14:24:20.909Z,60.31
2018-10-19T14:26:49.590Z,61.61
2018-10-19T14:29:19.182Z,61.64
2018-10-19T14:31:47.918Z,61.94
2018-10-19T14:34:16.587Z,61.90
2018-10-19T14:36:45.223Z,63.03
2018-10-19T14:39:14.025Z,63.02
2018-10-19T14:41:42.614Z,63.50
2018-10-19T14:44:11.506Z,63.52
2018-10-19T14:46:40.162Z,62.87
2018-10-19T14:49:08.761Z,63.13
2018-10-19T14:51:37.402Z,63.87
2018-10-19T14:54:06.148Z,63.77
2018-10-19T14:56:34.771Z,63.86
2018-10-19T14:59:03.454Z,65.19
2018-10-19T15:01:32.083Z,65.35
2018-10-19T15:04:00.698Z,65.19
2018-10-19T15:06:29.409Z,65.06
2018-10-19T15:08:58.246Z,65.27
2018-10-19T15:11:27.236Z,65.72
2018-10-19T15:13:55.502Z,65.88
2018-10-19T15:16:24.194Z,66.37
2018-10-19T15:18:52.844Z,66.06
2018-10-19T15:21:21.480Z,66.32
2018-10-19T15:23:50.119Z,66.59
2018-10-19T15:26:18.802Z,67.15
2018-10-19T15:28:47.662Z,67.37
2018-10-19T15:31:16.280Z,67.15
2018-10-19T15:33:44.914Z,67.71
2018-10-19T15:36:13.559Z,67.52
2018-10-19T15:38:42.353Z,68.17
2018-10-19T15:41:10.961Z,68.42
2018-10-19T15:43:39.733Z,68.28
2018-10-19T15:46:08.383Z,67.76
2018-10-19T15:48:37.116Z,67.47
2018-10-19T15:51:06.336Z,67.60
2018-10-19T15:53:35.096Z,68.63
2018-10-19T15:56:03.982Z,67.96
2018-10-19T15:58:33.857Z,68.18
2018-10-19T16:01:02.577Z,68.27
2018-10-19T16:03:31.278Z,67.98
2018-10-19T16:06:00.064Z,68.69
2018-10-19T16:08:28.962Z,69.24
2018-10-19T16:10:57.690Z,68.97
2018-10-19T16:13:26.324Z,68.94
2018-10-19T16:15:54.987Z,69.18
2018-10-19T16:18:23.632Z,70.08
2018-10-19T16:20:53.031Z,69.47
2018-10-19T16:23:21.800Z,70.16
2018-10-19T16:25:50.557Z,70.61
2018-10-19T16:28:19.225Z,70.84
2018-10-19T16:30:48.870Z,70.67
2018-10-19T16:33:17.492Z,71.19
2018-10-19T16:35:46.184Z,71.43
2018-10-19T16:38:14.846Z,72.08
2018-10-19T16:40:43.934Z,72.17
2018-10-19T16:43:12.540Z,72.46
2018-10-19T16:45:41.335Z,72.57
2018-10-19T16:48:10.227Z,73.02
2018-10-19T16:50:38.854Z,73.44
2018-10-19T16:53:07.545Z,73.58
2018-10-19T16:55:36.711Z,73.75
2018-10-19T16:58:05.644Z,74.14
2018-10-19T17:00:34.303Z,74.80
2018-10-19T17:03:03.092Z,74.93
2018-10-19T17:05:31.686Z,74.89
2018-10-19T17:08:00.309Z,75.07
2018-10-19T17:10:29.029Z,75.04
2018-10-19T17:12:57.727Z,74.72
2018-10-19T17:15:26.603Z,75.59
2018-10-19T17:17:55.376Z,76.68
2018-10-19T17:20:24.047Z,75.70
2018-10-19T17:22:52.862Z,75.77
2018-10-19T17:25:21.640Z,76.37
2018-10-19T17:27:50.216Z,76.16
2018-10-19T17:30:18.933Z,78.31
2018-10-19T17:32:47.660Z,76.80
2018-10-19T17:35:16.324Z,77.26
2018-10-19T17:37:45.665Z,76.81
2018-10-19T17:40:14.333Z,77.35
2018-10-19T17:42:43.108Z,76.29
2018-10-19T17:45:11.901Z,77.21
2018-10-19T17:47:42.995Z,76.65
2018-10-19T17:50:12.208Z,77.23
2018-10-19T17:52:40.896Z,77.25
2018-10-19T17:55:10.619Z,78.51
2018-10-19T17:57:39.849Z,77.03
2018-10-19T18:00:13.263Z,76.89
2018-10-19T18:02:42.044Z,76.96
2018-10-19T18:05:10.824Z,76.13
2018-10-19T18:07:41.876Z,75.75
2018-10-19T18:10:10.548Z,75.84
2018-10-19T18:12:39.336Z,76.19
2018-10-19T18:15:08.415Z,75.46
2018-10-19T18:17:37.636Z,76.55
2018-10-19T18:20:06.288Z,75.59
2018-10-19T18:22:35.292Z,75.42
2018-10-19T18:25:04.011Z,75.07
2018-10-19T18:27:32.644Z,75.77
2018-10-19T18:30:01.618Z,75.61
2018-10-19T18:32:30.579Z,75.54
2018-10-19T18:34:59.687Z,74.04
2018-10-19T18:37:28.295Z,74.48
2018-10-19T18:39:57.559Z,74.72
2018-10-19T18:42:26.301Z,74.45
2018-10-19T18:44:56.036Z,75.76
2018-10-19T18:47:26.031Z,75.71
2018-10-19T18:49:55.755Z,73.63
2018-10-19T18:52:24.511Z,72.94
2018-10-19T18:54:54.066Z,74.94
2018-10-19T18:57:22.800Z,75.78
2018-10-19T18:59:51.766Z,75.80
2018-10-19T19:02:20.536Z,74.34
2018-10-19T19:04:49.576Z,73.77
2018-10-19T19:07:18.346Z,75.04
2018-10-19T19:09:52.360Z,74.00
2018-10-19T19:12:21.327Z,73.49
2018-10-19T19:14:50.073Z,73.43
2018-10-19T19:17:18.893Z,74.63
2018-10-19T19:19:51.852Z,71.90
2018-10-19T19:22:20.629Z,70.88
2018-10-19T19:24:54.651Z,73.08
2018-10-19T19:27:23.820Z,70.49
2018-10-19T19:29:52.521Z,73.87
2018-10-19T19:32:21.531Z,73.45
2018-10-19T19:34:50.280Z,73.30
2018-10-19T19:37:19.088Z,72.53
2018-10-19T19:39:47.836Z,72.10
2018-10-19T19:42:21.681Z,71.40
2018-10-19T19:44:50.416Z,72.06
2018-10-19T19:47:24.605Z,73.96
2018-10-19T19:49:53.353Z,73.17
2018-10-19T19:52:22.490Z,72.40
2018-10-19T19:54:51.855Z,73.50
2018-10-19T19:57:20.526Z,74.51
2018-10-19T19:59:49.186Z,73.57
2018-10-19T20:02:18.192Z,74.21
2018-10-19T20:04:46.890Z,73.65
2018-10-19T20:07:15.859Z,73.83
2018-10-19T20:09:44.739Z,74.75
2018-10-19T20:12:13.523Z,75.07
2018-10-19T20:14:42.335Z,75.41
2018-10-19T20:17:11.150Z,76.23
2018-10-19T20:19:39.785Z,75.66
2018-10-19T20:22:08.449Z,76.15
2018-10-19T20:24:37.108Z,77.69
2018-10-19T20:27:06.135Z,77.81
2018-10-19T20:29:34.910Z,78.86
2018-10-19T20:32:03.742Z,78.94
2018-10-19T20:34:32.365Z,78.35
2018-10-19T20:37:01.075Z,79.48
2018-10-19T20:39:29.748Z,78.77
2018-10-19T20:41:58.414Z,78.96
2018-10-19T20:44:27.082Z,78.91
2018-10-19T20:46:55.790Z,79.10
2018-10-19T20:49:24.416Z,79.22
2018-10-19T20:51:53.050Z,79.58
2018-10-19T20:54:21.749Z,79.83
2018-10-19T20:56:50.462Z,79.88
2018-10-19T20:59:19.061Z,79.75
2018-10-19T21:01:47.679Z,79.25
2018-10-19T21:04:16.288Z,79.03
2018-10-19T21:06:44.948Z,79.58
2018-10-19T21:09:13.584Z,80.54
2018-10-19T21:11:42.195Z,79.93
2018-10-19T21:14:10.885Z,78.68
2018-10-19T21:16:39.430Z,78.26
2018-10-19T21:19:08.164Z,78.41
2018-10-19T21:21:36.706Z,78.29
2018-10-19T21:24:05.624Z,77.97
2018-10-19T21:26:34.199Z,78.11
2018-10-19T21:29:02.893Z,78.33
2018-10-19T21:31:31.512Z,79.36
2018-10-19T21:34:00.171Z,78.96
2018-10-19T21:36:28.780Z,78.42
2018-10-19T21:39:02.723Z,78.93
2018-10-19T21:41:31.367Z,79.29
2018-10-19T21:44:00.037Z,78.58
2018-10-19T21:46:28.642Z,77.59
2018-10-19T21:48:58.167Z,78.04
2018-10-19T21:51:26.836Z,77.37
2018-10-19T21:53:55.742Z,76.78
2018-10-19T21:56:24.419Z,76.59
2018-10-19T21:58:53.132Z,77.14
2018-10-19T22:01:22.014Z,76.63
2018-10-19T22:03:50.663Z,76.23
2018-10-19T22:06:19.358Z,77.93
2018-10-19T22:08:48.317Z,76.97
2018-10-19T22:11:17.056Z,76.44
2018-10-19T22:13:45.960Z,76.42
2018-10-19T22:16:14.999Z,76.74
2018-10-19T22:18:44.539Z,76.78
2018-10-19T22:21:13.355Z,77.04
2018-10-19T22:23:41.947Z,76.61
2018-10-19T22:26:10.720Z,76.70
2018-10-19T22:28:39.965Z,77.27
2018-10-19T22:31:08.867Z,77.27
2018-10-19T22:33:37.515Z,77.84
2018-10-19T22:36:06.684Z,78.51
2018-10-19T22:38:35.288Z,78.27
2018-10-19T22:41:03.945Z,78.25
2018-10-19T22:43:32.716Z,78.32
2018-10-19T22:46:01.353Z,79.26
2018-10-19T22:48:30.012Z,79.93
2018-10-19T22:50:58.632Z,78.96
2018-10-19T22:53:27.260Z,79.69
2018-10-19T22:55:56.201Z,77.83
2018-10-19T22:58:25.207Z,78.56
2018-10-19T23:00:53.865Z,79.47
2018-10-19T23:03:22.515Z,77.97
2018-10-19T23:05:51.158Z,77.22
2018-10-19T23:08:19.804Z,79.48
2018-10-19T23:10:48.420Z,77.73
2018-10-19T23:13:17.045Z,76.52
2018-10-19T23:15:45.655Z,78.29
2018-10-19T23:18:14.284Z,76.80
2018-10-19T23:20:42.923Z,75.19
2018-10-19T23:23:11.634Z,75.74
2018-10-19T23:25:40.216Z,76.26
2018-10-19T23:28:09.005Z,75.71
2018-10-19T23:30:37.745Z,76.39
2018-10-19T23:33:06.740Z,77.20
2018-10-19T23:35:35.629Z,76.59
2018-10-19T23:38:04.456Z,75.02
2018-10-19T23:40:33.252Z,74.37
2018-10-19T23:43:01.991Z,74.77
2018-10-19T23:45:30.631Z,75.26
2018-10-19T23:47:59.242Z,75.23
2018-10-19T23:50:27.889Z,75.45
2018-10-19T23:52:56.524Z,75.09
2018-10-19T23:55:25.166Z,75.50
2018-10-19T23:57:53.987Z,75.78
